sensor_id;sensor_type;location;lat;lon;timestamp;pressure;altitude;pressure_sealevel;temperature;humidity
75136;BME280;63707;52.212;9.540;2023-07-30T00:01:55;99159.44;;;14.74;100.00
75136;BME280;63707;52.212;9.540;2023-07-30T00:04:21;99160.91;;;14.82;100.00
75136;BME280;63707;52.212;9.540;2023-07-30T00:06:48;99148.28;;;14.80;100.00
75136;BME280;63707;52.212;9.540;2023-07-30T00:09:13;99150.50;;;14.84;100.00
75136;BME280;63707;52.212;9.540;2023-07-30T00:11:39;99149.88;;;14.76;100.00
75136;BME280;63707;52.212;9.540;2023-07-30T00:14:04;99159.31;;;14.86;100.00
75136;BME280;63707;52.212;9.540;2023-07-30T00:16:30;99155.72;;;14.85;100.00
75136;BME280;63707;52.212;9.540;2023-07-30T00:18:56;99156.50;;;14.80;100.00
75136;BME280;63707;52.212;9.540;2023-07-30T00:21:22;99154.91;;;14.85;100.00
75136;BME280;63707;52.212;9.540;2023-07-30T00:23:48;99158.47;;;14.85;100.00
75136;BME280;63707;52.212;9.540;2023-07-30T00:26:14;99166.75;;;14.90;100.00
75136;BME280;63707;52.212;9.540;2023-07-30T00:28:39;99165.72;;;14.96;100.00
75136;BME280;63707;52.212;9.540;2023-07-30T00:31:05;99170.19;;;15.02;100.00
75136;BME280;63707;52.212;9.540;2023-07-30T00:33:30;99163.16;;;15.11;100.00
75136;BME280;63707;52.212;9.540;2023-07-30T00:35:56;99166.97;;;15.10;100.00
75136;BME280;63707;52.212;9.540;2023-07-30T00:38:21;99165.59;;;15.08;100.00
75136;BME280;63707;52.212;9.540;2023-07-30T00:40:48;99177.91;;;15.05;100.00
75136;BME280;63707;52.212;9.540;2023-07-30T00:43:14;99177.00;;;15.00;100.00
75136;BME280;63707;52.212;9.540;2023-07-30T00:45:41;99172.16;;;15.07;100.00
75136;BME280;63707;52.212;9.540;2023-07-30T00:48:08;99180.97;;;15.09;100.00
75136;BME280;63707;52.212;9.540;2023-07-30T00:50:34;99182.25;;;15.01;100.00
75136;BME280;63707;52.212;9.540;2023-07-30T00:53:00;99181.63;;;14.94;100.00
75136;BME280;63707;52.212;9.540;2023-07-30T00:55:25;99184.03;;;14.91;100.00
75136;BME280;63707;52.212;9.540;2023-07-30T00:57:52;99181.88;;;14.93;100.00
75136;BME280;63707;52.212;9.540;2023-07-30T01:00:18;99184.81;;;14.86;100.00
75136;BME280;63707;52.212;9.540;2023-07-30T01:02:44;99194.19;;;14.90;100.00
75136;BME280;63707;52.212;9.540;2023-07-30T01:05:09;99187.94;;;14.95;100.00
75136;BME280;63707;52.212;9.540;2023-07-30T01:07:35;99180.66;;;15.05;100.00
75136;BME280;63707;52.212;9.540;2023-07-30T01:10:01;99182.63;;;15.10;100.00
75136;BME280;63707;52.212;9.540;2023-07-30T01:12:27;99182.31;;;15.06;100.00
75136;BME280;63707;52.212;9.540;2023-07-30T01:14:56;99195.91;;;14.96;100.00
75136;BME280;63707;52.212;9.540;2023-07-30T01:17:22;99187.34;;;14.93;100.00
75136;BME280;63707;52.212;9.540;2023-07-30T01:19:48;99192.66;;;14.77;100.00
75136;BME280;63707;52.212;9.540;2023-07-30T01:22:16;99197.75;;;14.69;100.00
75136;BME280;63707;52.212;9.540;2023-07-30T01:24:42;99201.16;;;14.59;100.00
75136;BME280;63707;52.212;9.540;2023-07-30T01:27:11;99212.31;;;14.53;100.00
75136;BME280;63707;52.212;9.540;2023-07-30T01:29:42;99213.34;;;14.46;100.00
75136;BME280;63707;52.212;9.540;2023-07-30T01:32:09;99209.44;;;14.42;100.00
75136;BME280;63707;52.212;9.540;2023-07-30T01:34:37;99210.28;;;14.43;100.00
75136;BME280;63707;52.212;9.540;2023-07-30T01:37:05;99211.31;;;14.42;100.00
75136;BME280;63707;52.212;9.540;2023-07-30T01:39:35;99210.75;;;14.40;100.00
75136;BME280;63707;52.212;9.540;2023-07-30T01:42:03;99208.34;;;14.43;100.00
75136;BME280;63707;52.212;9.540;2023-07-30T01:44:29;99205.13;;;14.46;100.00
75136;BME280;63707;52.212;9.540;2023-07-30T01:46:55;99215.81;;;14.48;100.00
75136;BME280;63707;52.212;9.540;2023-07-30T01:49:20;99214.16;;;14.47;100.00
75136;BME280;63707;52.212;9.540;2023-07-30T01:51:46;99218.50;;;14.43;100.00
75136;BME280;63707;52.212;9.540;2023-07-30T01:54:11;99218.00;;;14.46;100.00
75136;BME280;63707;52.212;9.540;2023-07-30T01:56:39;99218.25;;;14.44;100.00
75136;BME280;63707;52.212;9.540;2023-07-30T01:59:04;99220.22;;;14.49;100.00
75136;BME280;63707;52.212;9.540;2023-07-30T02:01:30;99224.31;;;14.46;100.00
75136;BME280;63707;52.212;9.540;2023-07-30T02:03:55;99227.75;;;14.42;100.00
75136;BME280;63707;52.212;9.540;2023-07-30T02:06:21;99227.28;;;14.45;100.00
75136;BME280;63707;52.212;9.540;2023-07-30T02:08:47;99228.38;;;14.44;100.00
75136;BME280;63707;52.212;9.540;2023-07-30T02:11:12;99228.53;;;14.37;100.00
75136;BME280;63707;52.212;9.540;2023-07-30T02:13:39;99229.69;;;14.41;100.00
75136;BME280;63707;52.212;9.540;2023-07-30T02:16:05;99241.66;;;14.35;100.00
75136;BME280;63707;52.212;9.540;2023-07-30T02:18:30;99232.59;;;14.35;100.00
75136;BME280;63707;52.212;9.540;2023-07-30T02:20:56;99225.28;;;14.40;100.00
75136;BME280;63707;52.212;9.540;2023-07-30T02:23:21;99226.72;;;14.43;100.00
75136;BME280;63707;52.212;9.540;2023-07-30T02:25:47;99224.94;;;14.37;100.00
75136;BME280;63707;52.212;9.540;2023-07-30T02:28:12;99222.91;;;14.27;100.00
75136;BME280;63707;52.212;9.540;2023-07-30T02:30:39;99231.53;;;14.19;100.00
75136;BME280;63707;52.212;9.540;2023-07-30T02:33:04;99237.41;;;14.11;100.00
75136;BME280;63707;52.212;9.540;2023-07-30T02:35:30;99229.69;;;14.08;100.00
75136;BME280;63707;52.212;9.540;2023-07-30T02:37:55;99239.56;;;14.09;100.00
75136;BME280;63707;52.212;9.540;2023-07-30T02:40:21;99235.66;;;14.05;100.00
75136;BME280;63707;52.212;9.540;2023-07-30T02:42:46;99230.59;;;13.97;100.00
75136;BME280;63707;52.212;9.540;2023-07-30T02:45:12;99244.47;;;13.90;100.00
75136;BME280;63707;52.212;9.540;2023-07-30T02:47:39;99232.94;;;13.88;100.00
75136;BME280;63707;52.212;9.540;2023-07-30T02:50:05;99236.75;;;13.87;100.00
75136;BME280;63707;52.212;9.540;2023-07-30T02:52:33;99241.06;;;13.83;100.00
75136;BME280;63707;52.212;9.540;2023-07-30T02:54:59;99240.97;;;13.78;100.00
75136;BME280;63707;52.212;9.540;2023-07-30T02:57:24;99240.47;;;13.81;100.00
75136;BME280;63707;52.212;9.540;2023-07-30T02:59:50;99242.13;;;13.82;100.00
75136;BME280;63707;52.212;9.540;2023-07-30T03:02:15;99238.91;;;13.85;100.00
75136;BME280;63707;52.212;9.540;2023-07-30T03:04:42;99241.16;;;13.88;100.00
75136;BME280;63707;52.212;9.540;2023-07-30T03:07:09;99238.91;;;13.85;100.00
75136;BME280;63707;52.212;9.540;2023-07-30T03:09:34;99241.91;;;13.83;100.00
75136;BME280;63707;52.212;9.540;2023-07-30T03:12:00;99240.22;;;13.82;100.00
75136;BME280;63707;52.212;9.540;2023-07-30T03:14:26;99246.63;;;13.88;100.00
75136;BME280;63707;52.212;9.540;2023-07-30T03:16:51;99246.88;;;13.86;100.00
75136;BME280;63707;52.212;9.540;2023-07-30T03:19:17;99251.00;;;13.72;100.00
75136;BME280;63707;52.212;9.540;2023-07-30T03:21:44;99265.31;;;13.63;100.00
75136;BME280;63707;52.212;9.540;2023-07-30T03:24:09;99259.31;;;13.49;100.00
75136;BME280;63707;52.212;9.540;2023-07-30T03:26:35;99256.88;;;13.36;100.00
75136;BME280;63707;52.212;9.540;2023-07-30T03:29:00;99270.00;;;13.22;100.00
75136;BME280;63707;52.212;9.540;2023-07-30T03:31:25;99262.63;;;13.11;100.00
75136;BME280;63707;52.212;9.540;2023-07-30T03:33:53;99262.19;;;13.02;100.00
75136;BME280;63707;52.212;9.540;2023-07-30T03:36:19;99253.69;;;13.15;100.00
75136;BME280;63707;52.212;9.540;2023-07-30T03:38:46;99252.50;;;13.11;100.00
75136;BME280;63707;52.212;9.540;2023-07-30T03:41:11;99251.34;;;13.07;100.00
75136;BME280;63707;52.212;9.540;2023-07-30T03:43:37;99264.91;;;13.02;100.00
75136;BME280;63707;52.212;9.540;2023-07-30T03:46:03;99268.38;;;12.98;100.00
75136;BME280;63707;52.212;9.540;2023-07-30T03:48:28;99265.06;;;12.96;100.00
75136;BME280;63707;52.212;9.540;2023-07-30T03:50:54;99265.63;;;12.98;100.00
75136;BME280;63707;52.212;9.540;2023-07-30T03:53:20;99263.00;;;13.03;100.00
75136;BME280;63707;52.212;9.540;2023-07-30T03:55:47;99269.91;;;13.05;100.00
75136;BME280;63707;52.212;9.540;2023-07-30T03:58:12;99263.81;;;13.15;100.00
75136;BME280;63707;52.212;9.540;2023-07-30T04:00:39;99260.72;;;13.11;100.00
75136;BME280;63707;52.212;9.540;2023-07-30T04:03:04;99267.75;;;13.07;100.00
75136;BME280;63707;52.212;9.540;2023-07-30T04:05:30;99263.34;;;13.18;100.00
75136;BME280;63707;52.212;9.540;2023-07-30T04:07:55;99263.50;;;13.00;100.00
75136;BME280;63707;52.212;9.540;2023-07-30T04:10:21;99264.44;;;13.05;100.00
75136;BME280;63707;52.212;9.540;2023-07-30T04:12:48;99270.13;;;13.27;100.00
75136;BME280;63707;52.212;9.540;2023-07-30T04:15:14;99275.56;;;13.15;100.00
75136;BME280;63707;52.212;9.540;2023-07-30T04:17:40;99269.75;;;13.12;100.00
75136;BME280;63707;52.212;9.540;2023-07-30T04:20:06;99270.47;;;13.07;100.00
75136;BME280;63707;52.212;9.540;2023-07-30T04:22:32;99271.06;;;13.09;100.00
75136;BME280;63707;52.212;9.540;2023-07-30T04:24:58;99275.94;;;13.07;100.00
75136;BME280;63707;52.212;9.540;2023-07-30T04:27:23;99284.16;;;13.07;100.00
75136;BME280;63707;52.212;9.540;2023-07-30T04:29:50;99281.53;;;13.12;100.00
75136;BME280;63707;52.212;9.540;2023-07-30T04:32:15;99271.06;;;13.21;100.00
75136;BME280;63707;52.212;9.540;2023-07-30T04:34:41;99281.31;;;13.26;100.00
75136;BME280;63707;52.212;9.540;2023-07-30T04:37:06;99281.41;;;13.31;100.00
75136;BME280;63707;52.212;9.540;2023-07-30T04:39:32;99277.88;;;13.47;100.00
75136;BME280;63707;52.212;9.540;2023-07-30T04:41:57;99277.16;;;13.51;100.00
75136;BME280;63707;52.212;9.540;2023-07-30T04:44:23;99279.00;;;13.63;100.00
75136;BME280;63707;52.212;9.540;2023-07-30T04:46:50;99282.97;;;13.83;100.00
75136;BME280;63707;52.212;9.540;2023-07-30T04:49:15;99273.34;;;13.98;100.00
75136;BME280;63707;52.212;9.540;2023-07-30T04:51:41;99274.69;;;14.12;100.00
75136;BME280;63707;52.212;9.540;2023-07-30T04:54:06;99283.81;;;14.17;100.00
75136;BME280;63707;52.212;9.540;2023-07-30T04:56:32;99272.28;;;14.32;100.00
75136;BME280;63707;52.212;9.540;2023-07-30T04:58:57;99270.38;;;14.33;100.00
75136;BME280;63707;52.212;9.540;2023-07-30T05:01:23;99274.13;;;14.43;100.00
75136;BME280;63707;52.212;9.540;2023-07-30T05:03:50;99290.16;;;14.52;100.00
75136;BME280;63707;52.212;9.540;2023-07-30T05:06:16;99277.88;;;14.54;100.00
75136;BME280;63707;52.212;9.540;2023-07-30T05:08:41;99278.88;;;14.48;100.00
75136;BME280;63707;52.212;9.540;2023-07-30T05:11:07;99291.00;;;14.52;100.00
75136;BME280;63707;52.212;9.540;2023-07-30T05:13:33;99280.84;;;14.53;100.00
75136;BME280;63707;52.212;9.540;2023-07-30T05:15:58;99282.84;;;14.57;100.00
75136;BME280;63707;52.212;9.540;2023-07-30T05:18:24;99274.44;;;14.64;100.00
75136;BME280;63707;52.212;9.540;2023-07-30T05:20:50;99282.75;;;14.69;100.00
75136;BME280;63707;52.212;9.540;2023-07-30T05:23:16;99281.56;;;14.82;100.00
75136;BME280;63707;52.212;9.540;2023-07-30T05:25:41;99274.75;;;14.84;100.00
75136;BME280;63707;52.212;9.540;2023-07-30T05:28:07;99278.56;;;14.83;100.00
75136;BME280;63707;52.212;9.540;2023-07-30T05:30:32;99280.69;;;14.98;100.00
75136;BME280;63707;52.212;9.540;2023-07-30T05:32:58;99286.56;;;15.06;100.00
75136;BME280;63707;52.212;9.540;2023-07-30T05:35:23;99287.72;;;15.10;100.00
75136;BME280;63707;52.212;9.540;2023-07-30T05:37:50;99286.00;;;15.26;100.00
75136;BME280;63707;52.212;9.540;2023-07-30T05:40:16;99293.16;;;15.27;100.00
75136;BME280;63707;52.212;9.540;2023-07-30T05:42:41;99301.31;;;15.44;100.00
75136;BME280;63707;52.212;9.540;2023-07-30T05:45:08;99308.59;;;15.33;100.00
75136;BME280;63707;52.212;9.540;2023-07-30T05:47:33;99317.28;;;15.25;100.00
75136;BME280;63707;52.212;9.540;2023-07-30T05:49:59;99310.84;;;15.36;100.00
75136;BME280;63707;52.212;9.540;2023-07-30T05:52:24;99297.19;;;15.63;100.00
75136;BME280;63707;52.212;9.540;2023-07-30T05:54:51;99300.19;;;15.62;100.00
75136;BME280;63707;52.212;9.540;2023-07-30T05:57:17;99317.91;;;15.54;100.00
75136;BME280;63707;52.212;9.540;2023-07-30T05:59:42;99316.16;;;15.65;100.00
75136;BME280;63707;52.212;9.540;2023-07-30T06:02:08;99326.75;;;15.78;100.00
75136;BME280;63707;52.212;9.540;2023-07-30T06:04:33;99330.09;;;15.85;100.00
75136;BME280;63707;52.212;9.540;2023-07-30T06:06:59;99333.94;;;15.84;100.00
75136;BME280;63707;52.212;9.540;2023-07-30T06:09:25;99346.91;;;15.89;100.00
75136;BME280;63707;52.212;9.540;2023-07-30T06:11:52;99351.72;;;16.03;100.00
75136;BME280;63707;52.212;9.540;2023-07-30T06:14:18;99344.31;;;16.04;100.00
75136;BME280;63707;52.212;9.540;2023-07-30T06:16:43;99354.06;;;16.17;100.00
75136;BME280;63707;52.212;9.540;2023-07-30T06:19:09;99356.81;;;16.17;100.00
75136;BME280;63707;52.212;9.540;2023-07-30T06:21:35;99363.47;;;16.21;100.00
75136;BME280;63707;52.212;9.540;2023-07-30T06:24:00;99355.47;;;16.19;100.00
75136;BME280;63707;52.212;9.540;2023-07-30T06:26:26;99362.16;;;16.28;100.00
75136;BME280;63707;52.212;9.540;2023-07-30T06:28:53;99369.84;;;16.58;100.00
75136;BME280;63707;52.212;9.540;2023-07-30T06:31:18;99372.34;;;16.60;100.00
75136;BME280;63707;52.212;9.540;2023-07-30T06:33:44;99367.06;;;16.85;100.00
75136;BME280;63707;52.212;9.540;2023-07-30T06:36:09;99367.69;;;16.97;100.00
75136;BME280;63707;52.212;9.540;2023-07-30T06:38:35;99378.44;;;16.99;100.00
75136;BME280;63707;52.212;9.540;2023-07-30T06:41:00;99386.38;;;17.38;100.00
75136;BME280;63707;52.212;9.540;2023-07-30T06:43:26;99385.97;;;17.61;100.00
75136;BME280;63707;52.212;9.540;2023-07-30T06:45:53;99395.53;;;17.48;100.00
75136;BME280;63707;52.212;9.540;2023-07-30T06:48:20;99388.97;;;18.27;100.00
75136;BME280;63707;52.212;9.540;2023-07-30T06:50:45;99415.53;;;17.71;100.00
75136;BME280;63707;52.212;9.540;2023-07-30T06:53:11;99412.78;;;17.76;100.00
75136;BME280;63707;52.212;9.540;2023-07-30T06:55:36;99414.63;;;18.33;100.00
75136;BME280;63707;52.212;9.540;2023-07-30T06:58:02;99420.81;;;17.82;100.00
75136;BME280;63707;52.212;9.540;2023-07-30T07:00:27;99420.63;;;17.99;100.00
75136;BME280;63707;52.212;9.540;2023-07-30T07:02:54;99422.59;;;18.19;100.00
75136;BME280;63707;52.212;9.540;2023-07-30T07:05:19;99428.13;;;18.29;100.00
75136;BME280;63707;52.212;9.540;2023-07-30T07:07:45;99427.59;;;18.32;100.00
75136;BME280;63707;52.212;9.540;2023-07-30T07:10:11;99433.06;;;18.17;100.00
75136;BME280;63707;52.212;9.540;2023-07-30T07:12:36;99428.91;;;18.09;100.00
75136;BME280;63707;52.212;9.540;2023-07-30T07:15:03;99428.63;;;18.06;100.00
75136;BME280;63707;52.212;9.540;2023-07-30T07:17:29;99432.44;;;17.47;100.00
75136;BME280;63707;52.212;9.540;2023-07-30T07:19:56;99428.03;;;17.46;100.00
75136;BME280;63707;52.212;9.540;2023-07-30T07:22:21;99425.50;;;17.40;100.00
75136;BME280;63707;52.212;9.540;2023-07-30T07:24:47;99430.06;;;17.66;100.00
75136;BME280;63707;52.212;9.540;2023-07-30T07:27:13;99430.34;;;18.32;100.00
75136;BME280;63707;52.212;9.540;2023-07-30T07:29:38;99436.06;;;18.00;100.00
75136;BME280;63707;52.212;9.540;2023-07-30T07:32:05;99434.75;;;18.38;100.00
75136;BME280;63707;52.212;9.540;2023-07-30T07:34:31;99438.97;;;18.61;100.00
75136;BME280;63707;52.212;9.540;2023-07-30T07:36:57;99447.00;;;18.88;100.00
75136;BME280;63707;52.212;9.540;2023-07-30T07:39:23;99445.06;;;18.88;100.00
75136;BME280;63707;52.212;9.540;2023-07-30T07:41:48;99444.25;;;18.83;100.00
75136;BME280;63707;52.212;9.540;2023-07-30T07:44:14;99431.28;;;19.09;100.00
75136;BME280;63707;52.212;9.540;2023-07-30T07:46:39;99435.94;;;19.29;100.00
75136;BME280;63707;52.212;9.540;2023-07-30T07:49:05;99422.44;;;18.81;100.00
75136;BME280;63707;52.212;9.540;2023-07-30T07:51:30;99445.34;;;19.43;100.00
75136;BME280;63707;52.212;9.540;2023-07-30T07:53:57;99439.81;;;19.33;100.00
75136;BME280;63707;52.212;9.540;2023-07-30T07:56:23;99441.75;;;19.53;100.00
75136;BME280;63707;52.212;9.540;2023-07-30T07:58:49;99449.75;;;19.54;100.00
75136;BME280;63707;52.212;9.540;2023-07-30T08:01:14;99447.69;;;20.00;100.00
75136;BME280;63707;52.212;9.540;2023-07-30T08:03:39;99441.53;;;20.13;100.00
75136;BME280;63707;52.212;9.540;2023-07-30T08:06:05;99440.38;;;20.20;100.00
75136;BME280;63707;52.212;9.540;2023-07-30T08:08:31;99450.84;;;19.63;100.00
75136;BME280;63707;52.212;9.540;2023-07-30T08:10:58;99452.47;;;20.44;100.00
75136;BME280;63707;52.212;9.540;2023-07-30T08:13:23;99451.50;;;20.09;100.00
75136;BME280;63707;52.212;9.540;2023-07-30T08:15:49;99454.44;;;20.83;100.00
75136;BME280;63707;52.212;9.540;2023-07-30T08:18:14;99454.16;;;20.30;100.00
75136;BME280;63707;52.212;9.540;2023-07-30T08:20:40;99458.19;;;20.97;100.00
75136;BME280;63707;52.212;9.540;2023-07-30T08:23:05;99456.94;;;19.55;100.00
75136;BME280;63707;52.212;9.540;2023-07-30T08:25:31;99455.00;;;19.61;100.00
75136;BME280;63707;52.212;9.540;2023-07-30T08:27:57;99453.59;;;19.38;100.00
75136;BME280;63707;52.212;9.540;2023-07-30T08:30:23;99452.53;;;19.24;100.00
75136;BME280;63707;52.212;9.540;2023-07-30T08:32:48;99442.88;;;19.16;100.00
75136;BME280;63707;52.212;9.540;2023-07-30T08:35:14;99441.78;;;19.07;100.00
75136;BME280;63707;52.212;9.540;2023-07-30T08:37:39;99439.53;;;19.29;100.00
75136;BME280;63707;52.212;9.540;2023-07-30T08:40:06;99437.34;;;19.41;100.00
75136;BME280;63707;52.212;9.540;2023-07-30T08:42:32;99442.25;;;19.65;100.00
75136;BME280;63707;52.212;9.540;2023-07-30T08:44:59;99442.63;;;20.18;100.00
75136;BME280;63707;52.212;9.540;2023-07-30T08:47:24;99442.88;;;20.21;100.00
75136;BME280;63707;52.212;9.540;2023-07-30T08:49:50;99449.31;;;20.61;100.00
75136;BME280;63707;52.212;9.540;2023-07-30T08:52:16;99443.13;;;20.74;100.00
75136;BME280;63707;52.212;9.540;2023-07-30T08:54:42;99444.53;;;20.22;100.00
75136;BME280;63707;52.212;9.540;2023-07-30T08:57:09;99454.94;;;20.51;100.00
75136;BME280;63707;52.212;9.540;2023-07-30T08:59:39;99458.50;;;19.92;100.00
75136;BME280;63707;52.212;9.540;2023-07-30T09:02:13;99447.06;;;20.13;100.00
75136;BME280;63707;52.212;9.540;2023-07-30T09:04:40;99441.63;;;20.53;100.00
75136;BME280;63707;52.212;9.540;2023-07-30T09:07:08;99454.09;;;19.91;100.00
75136;BME280;63707;52.212;9.540;2023-07-30T09:09:34;99453.56;;;19.73;100.00
75136;BME280;63707;52.212;9.540;2023-07-30T09:12:00;99457.88;;;20.05;100.00
75136;BME280;63707;52.212;9.540;2023-07-30T09:14:26;99463.50;;;19.90;100.00
75136;BME280;63707;52.212;9.540;2023-07-30T09:16:56;99453.63;;;19.28;100.00
75136;BME280;63707;52.212;9.540;2023-07-30T09:19:24;99462.47;;;19.60;100.00
75136;BME280;63707;52.212;9.540;2023-07-30T09:21:49;99461.84;;;19.78;100.00
75136;BME280;63707;52.212;9.540;2023-07-30T09:24:20;99456.38;;;20.28;100.00
75136;BME280;63707;52.212;9.540;2023-07-30T09:26:47;99463.81;;;20.32;100.00
75136;BME280;63707;52.212;9.540;2023-07-30T09:29:12;99465.44;;;20.93;100.00
75136;BME280;63707;52.212;9.540;2023-07-30T09:31:48;99465.78;;;20.32;100.00
75136;BME280;63707;52.212;9.540;2023-07-30T09:34:17;99482.31;;;20.52;100.00
75136;BME280;63707;52.212;9.540;2023-07-30T09:36:45;99487.53;;;19.94;100.00
75136;BME280;63707;52.212;9.540;2023-07-30T09:39:15;99481.91;;;20.15;100.00
75136;BME280;63707;52.212;9.540;2023-07-30T09:41:41;99479.31;;;19.59;100.00
75136;BME280;63707;52.212;9.540;2023-07-30T09:44:07;99485.13;;;19.42;100.00
75136;BME280;63707;52.212;9.540;2023-07-30T09:46:42;99488.69;;;18.71;100.00
75136;BME280;63707;52.212;9.540;2023-07-30T09:49:08;99494.94;;;18.46;100.00
75136;BME280;63707;52.212;9.540;2023-07-30T09:51:34;99499.88;;;18.44;100.00
75136;BME280;63707;52.212;9.540;2023-07-30T09:54:01;99486.84;;;18.14;100.00
75136;BME280;63707;52.212;9.540;2023-07-30T09:56:26;99494.16;;;17.93;100.00
75136;BME280;63707;52.212;9.540;2023-07-30T09:58:52;99494.28;;;18.19;100.00
75136;BME280;63707;52.212;9.540;2023-07-30T10:01:19;99489.53;;;17.99;100.00
75136;BME280;63707;52.212;9.540;2023-07-30T10:03:47;99498.56;;;17.94;100.00
75136;BME280;63707;52.212;9.540;2023-07-30T10:06:15;99509.75;;;18.20;100.00
75136;BME280;63707;52.212;9.540;2023-07-30T10:08:42;99504.09;;;17.94;100.00
75136;BME280;63707;52.212;9.540;2023-07-30T10:11:11;99512.91;;;17.91;100.00
75136;BME280;63707;52.212;9.540;2023-07-30T10:13:39;99512.69;;;18.03;100.00
75136;BME280;63707;52.212;9.540;2023-07-30T10:16:09;99508.09;;;17.72;100.00
75136;BME280;63707;52.212;9.540;2023-07-30T10:18:38;99507.50;;;17.65;100.00
75136;BME280;63707;52.212;9.540;2023-07-30T10:21:07;99516.78;;;17.53;100.00
75136;BME280;63707;52.212;9.540;2023-07-30T10:23:33;99515.50;;;17.66;100.00
75136;BME280;63707;52.212;9.540;2023-07-30T10:25:58;99521.47;;;17.53;100.00
75136;BME280;63707;52.212;9.540;2023-07-30T10:28:33;99518.03;;;17.73;100.00
75136;BME280;63707;52.212;9.540;2023-07-30T10:31:00;99520.00;;;17.82;100.00
75136;BME280;63707;52.212;9.540;2023-07-30T10:33:44;99525.28;;;17.89;100.00
75136;BME280;63707;52.212;9.540;2023-07-30T10:36:10;99532.81;;;17.61;100.00
75136;BME280;63707;52.212;9.540;2023-07-30T10:38:35;99530.22;;;17.82;100.00
75136;BME280;63707;52.212;9.540;2023-07-30T10:41:03;99532.34;;;18.17;100.00
75136;BME280;63707;52.212;9.540;2023-07-30T10:43:29;99541.31;;;17.97;100.00
75136;BME280;63707;52.212;9.540;2023-07-30T10:45:56;99544.78;;;17.77;100.00
75136;BME280;63707;52.212;9.540;2023-07-30T10:48:29;99532.16;;;17.86;100.00
75136;BME280;63707;52.212;9.540;2023-07-30T10:50:55;99531.28;;;17.76;100.00
75136;BME280;63707;52.212;9.540;2023-07-30T10:53:20;99534.88;;;17.76;100.00
75136;BME280;63707;52.212;9.540;2023-07-30T10:55:46;99532.16;;;17.49;100.00
75136;BME280;63707;52.212;9.540;2023-07-30T10:58:11;99522.22;;;17.85;100.00
75136;BME280;63707;52.212;9.540;2023-07-30T11:00:38;99526.81;;;18.12;100.00
75136;BME280;63707;52.212;9.540;2023-07-30T11:03:05;99518.34;;;18.39;100.00
75136;BME280;63707;52.212;9.540;2023-07-30T11:05:31;99526.75;;;18.69;100.00
75136;BME280;63707;52.212;9.540;2023-07-30T11:07:56;99524.34;;;18.15;100.00
75136;BME280;63707;52.212;9.540;2023-07-30T11:10:22;99520.72;;;18.05;100.00
75136;BME280;63707;52.212;9.540;2023-07-30T11:12:49;99528.34;;;17.50;100.00
75136;BME280;63707;52.212;9.540;2023-07-30T11:15:15;99527.44;;;17.45;100.00
75136;BME280;63707;52.212;9.540;2023-07-30T11:17:40;99522.94;;;17.34;100.00
75136;BME280;63707;52.212;9.540;2023-07-30T11:20:08;99520.72;;;17.30;100.00
75136;BME280;63707;52.212;9.540;2023-07-30T11:22:46;99518.88;;;17.41;100.00
75136;BME280;63707;52.212;9.540;2023-07-30T11:25:16;99514.97;;;18.16;100.00
75136;BME280;63707;52.212;9.540;2023-07-30T11:27:45;99520.47;;;19.25;100.00
75136;BME280;63707;52.212;9.540;2023-07-30T11:30:11;99509.16;;;19.21;100.00
75136;BME280;63707;52.212;9.540;2023-07-30T11:32:36;99514.94;;;19.25;100.00
75136;BME280;63707;52.212;9.540;2023-07-30T11:35:02;99513.31;;;19.59;100.00
75136;BME280;63707;52.212;9.540;2023-07-30T11:37:29;99516.34;;;19.68;100.00
75136;BME280;63707;52.212;9.540;2023-07-30T11:39:55;99521.00;;;19.93;100.00
75136;BME280;63707;52.212;9.540;2023-07-30T11:42:20;99515.25;;;19.43;100.00
75136;BME280;63707;52.212;9.540;2023-07-30T11:44:46;99513.03;;;19.66;100.00
75136;BME280;63707;52.212;9.540;2023-07-30T11:47:20;99516.31;;;19.78;100.00
75136;BME280;63707;52.212;9.540;2023-07-30T11:49:54;99510.72;;;20.68;100.00
75136;BME280;63707;52.212;9.540;2023-07-30T11:52:20;99519.63;;;21.43;100.00
75136;BME280;63707;52.212;9.540;2023-07-30T11:54:47;99522.69;;;21.71;100.00
75136;BME280;63707;52.212;9.540;2023-07-30T11:57:12;99505.81;;;21.67;100.00
75136;BME280;63707;52.212;9.540;2023-07-30T11:59:38;99501.22;;;22.53;100.00
75136;BME280;63707;52.212;9.540;2023-07-30T12:02:04;99506.63;;;21.96;100.00
75136;BME280;63707;52.212;9.540;2023-07-30T12:04:31;99517.22;;;20.48;100.00
75136;BME280;63707;52.212;9.540;2023-07-30T12:06:56;99514.69;;;20.52;100.00
75136;BME280;63707;52.212;9.540;2023-07-30T12:09:23;99523.63;;;20.88;100.00
75136;BME280;63707;52.212;9.540;2023-07-30T12:11:53;99522.66;;;21.47;100.00
75136;BME280;63707;52.212;9.540;2023-07-30T12:14:21;99523.91;;;21.30;100.00
75136;BME280;63707;52.212;9.540;2023-07-30T12:16:47;99520.28;;;20.36;100.00
75136;BME280;63707;52.212;9.540;2023-07-30T12:19:13;99525.38;;;20.04;100.00
75136;BME280;63707;52.212;9.540;2023-07-30T12:21:38;99530.13;;;19.73;100.00
75136;BME280;63707;52.212;9.540;2023-07-30T12:24:04;99527.28;;;20.08;100.00
75136;BME280;63707;52.212;9.540;2023-07-30T12:26:30;99523.66;;;21.56;100.00
75136;BME280;63707;52.212;9.540;2023-07-30T12:28:57;99512.38;;;22.29;100.00
75136;BME280;63707;52.212;9.540;2023-07-30T12:31:22;99514.53;;;21.55;100.00
75136;BME280;63707;52.212;9.540;2023-07-30T12:33:48;99511.84;;;22.27;100.00
75136;BME280;63707;52.212;9.540;2023-07-30T12:36:15;99505.22;;;22.23;100.00
75136;BME280;63707;52.212;9.540;2023-07-30T12:38:41;99500.25;;;23.51;100.00
75136;BME280;63707;52.212;9.540;2023-07-30T12:41:06;99498.28;;;23.38;100.00
75136;BME280;63707;52.212;9.540;2023-07-30T12:43:32;99493.72;;;23.61;100.00
75136;BME280;63707;52.212;9.540;2023-07-30T12:45:58;99491.38;;;22.42;100.00